OIMN

Bojnord Airport

Airport
ICAO code
OIMN
IATA Code
BJB
Summary
ICAO Region
MID
ICAO Territory
Location

Bojnord, North Khorasan

Serving
Bojnord
Elevation
3499 ft
Coordinates
37° 29' 23" N , 57° 18' 28" E
KCC
Metar
Observation
OIMN 070200Z VRB02KT CAVOK M05/M06 Q1025
Station
Bojnourd
Date/Time
2022-12-07 02:00:00
Wind speed
02 kts
Lowest cloud amount
clouds and visibility OK
Temperature
-5°C
Dew point
-6°C
Humidity
92%
QNH
1025 hPa
Weather condition
n/a

Airport serving Bojnord (also spelt Bojnourd or Bojnurd), the capital city of North Khorasan province, Iran.

Climatology

Cold Semi-arid climate (Köppen climate classification BSk).

Runways

Designator Length Width Surface Rops
7/25 3225 45 ASP No/No

Airport map

Aerial View

SKYbrary Partners:

Safety knowledge contributed by: